createdAt,value
2023-05-11T01:01:23.180Z,7.67
2023-05-11T01:03:52.175Z,7.67
2023-05-11T01:06:29.068Z,7.64
2023-05-11T01:09:03.653Z,7.63
2023-05-11T01:11:42.325Z,7.61
2023-05-11T01:14:16.530Z,7.61
2023-05-11T01:16:49.482Z,7.60
2023-05-11T01:19:33.483Z,7.58
2023-05-11T01:22:15.928Z,7.60
2023-05-11T01:25:04.849Z,7.56
2023-05-11T01:28:10.266Z,7.53
2023-05-11T01:30:48.490Z,7.54
2023-05-11T01:33:21.691Z,7.56
2023-05-11T01:35:54.817Z,7.54
2023-05-11T01:38:28.335Z,7.53
2023-05-11T01:40:59.764Z,7.53
2023-05-11T01:43:33.595Z,7.53
2023-05-11T01:46:10.383Z,7.46
2023-05-11T01:48:42.590Z,7.47
2023-05-11T01:51:13.461Z,7.46
2023-05-11T01:53:44.505Z,7.43
2023-05-11T01:56:14.550Z,7.39
2023-05-11T01:58:45.483Z,7.36
2023-05-11T02:01:16.557Z,7.35
2023-05-11T02:03:49.142Z,7.30
2023-05-11T02:06:20.769Z,7.28
2023-05-11T02:08:52.539Z,7.26
2023-05-11T02:11:27.858Z,7.21
2023-05-11T02:13:59.639Z,7.19
2023-05-11T02:16:33.283Z,7.18
2023-05-11T02:19:03.320Z,7.16
2023-05-11T02:21:33.451Z,7.14
2023-05-11T02:24:08.583Z,7.11
2023-05-11T02:26:39.027Z,7.08
2023-05-11T02:29:07.996Z,7.10
2023-05-11T02:31:49.226Z,7.05
2023-05-11T02:34:22.733Z,7.07
2023-05-11T02:36:57.717Z,7.01
2023-05-11T02:39:33.576Z,6.98
2023-05-11T02:42:10.984Z,6.95
2023-05-11T02:44:44.604Z,6.91
2023-05-11T02:47:15.084Z,6.88
2023-05-11T02:49:49.130Z,6.90
2023-05-11T02:52:18.541Z,6.86
2023-05-11T02:54:53.241Z,6.86
2023-05-11T02:57:23.150Z,6.84
2023-05-11T02:59:53.783Z,6.84
2023-05-11T03:02:23.237Z,6.83
2023-05-11T03:04:52.796Z,6.80
2023-05-11T03:07:22.068Z,6.79
2023-05-11T03:09:51.561Z,6.80
2023-05-11T03:12:21.301Z,6.82
2023-05-11T03:14:52.384Z,6.80
2023-05-11T03:17:22.643Z,6.80
2023-05-11T03:19:52.958Z,6.82
2023-05-11T03:22:22.892Z,6.84
2023-05-11T03:24:53.399Z,6.86
2023-05-11T03:27:23.860Z,6.83
2023-05-11T03:29:54.596Z,6.87
2023-05-11T03:32:23.776Z,6.86
2023-05-11T03:34:53.254Z,6.86
2023-05-11T03:37:22.966Z,6.90
2023-05-11T03:39:58.064Z,6.90
2023-05-11T03:42:28.334Z,6.94
2023-05-11T03:44:59.255Z,6.97
2023-05-11T03:47:29.364Z,7.04
2023-05-11T03:49:59.909Z,7.08
2023-05-11T03:52:31.741Z,7.11
2023-05-11T03:55:02.681Z,7.16
2023-05-11T03:57:33.140Z,7.22
2023-05-11T04:00:03.306Z,7.30
2023-05-11T04:02:36.816Z,7.39
2023-05-11T04:05:09.085Z,7.50
2023-05-11T04:07:38.924Z,7.71
2023-05-11T04:10:09.641Z,8.41
2023-05-11T04:12:38.620Z,9.65
2023-05-11T04:15:09.273Z,11.03
2023-05-11T04:17:38.782Z,12.71
2023-05-11T04:20:10.008Z,14.55
2023-05-11T04:22:38.875Z,16.23
2023-05-11T04:25:08.926Z,17.83
2023-05-11T04:27:41.629Z,19.05
2023-05-11T04:30:11.788Z,20.29
2023-05-11T04:32:40.826Z,21.50
2023-05-11T04:35:11.471Z,22.35
2023-05-11T04:37:42.441Z,22.18
2023-05-11T04:40:13.585Z,21.41
2023-05-11T04:42:43.112Z,20.77
2023-05-11T04:45:17.035Z,21.17
2023-05-11T04:47:46.174Z,22.20
2023-05-11T04:50:15.792Z,23.09
2023-05-11T04:52:44.955Z,24.14
2023-05-11T04:55:13.939Z,25.13
2023-05-11T04:57:43.018Z,26.30
2023-05-11T05:00:13.401Z,27.07
2023-05-11T05:02:42.423Z,27.82
2023-05-11T05:05:13.855Z,28.48
2023-05-11T05:07:42.731Z,29.13
2023-05-11T05:10:12.412Z,29.68
2023-05-11T05:12:41.344Z,30.17
2023-05-11T05:15:12.169Z,30.70
2023-05-11T05:17:40.977Z,31.24
2023-05-11T05:20:11.573Z,31.72
2023-05-11T05:22:41.169Z,31.90
2023-05-11T05:25:11.494Z,32.10
2023-05-11T05:27:42.468Z,32.06
2023-05-11T05:30:17.922Z,31.49
2023-05-11T05:32:47.669Z,30.07
2023-05-11T05:35:17.761Z,28.04
2023-05-11T05:37:48.962Z,26.85
2023-05-11T05:40:19.430Z,27.07
2023-05-11T05:42:55.415Z,27.63
2023-05-11T05:45:28.511Z,28.34
2023-05-11T05:48:00.053Z,28.73
2023-05-11T05:50:33.026Z,29.30
2023-05-11T05:53:04.849Z,29.85
2023-05-11T05:55:35.190Z,29.73
2023-05-11T05:58:05.773Z,29.00
2023-05-11T06:00:37.527Z,28.32
2023-05-11T06:03:08.254Z,27.48
2023-05-11T06:05:38.101Z,26.52
2023-05-11T06:08:11.009Z,25.48
2023-05-11T06:10:41.148Z,24.65
2023-05-11T06:13:13.301Z,24.31
2023-05-11T06:15:44.041Z,24.03
2023-05-11T06:18:28.811Z,23.89
2023-05-11T06:21:00.055Z,23.93
2023-05-11T06:23:29.835Z,23.53
2023-05-11T06:26:02.714Z,22.87
2023-05-11T06:28:34.064Z,22.32
2023-05-11T06:42:27.407Z,18.93
2023-05-11T06:45:11.688Z,18.45
2023-05-11T06:47:46.867Z,18.13
2023-05-11T06:50:21.434Z,17.83
2023-05-11T06:52:54.635Z,17.68
2023-05-11T06:55:27.896Z,17.70
2023-05-11T06:58:02.256Z,17.58
2023-05-11T07:00:37.223Z,17.39
2023-05-11T07:03:09.783Z,17.30
2023-05-11T07:05:42.236Z,17.32
2023-05-11T07:08:14.429Z,17.34
2023-05-11T07:10:47.000Z,17.49
2023-05-11T07:13:19.184Z,17.77
2023-05-11T07:15:51.591Z,18.03
2023-05-11T07:18:23.871Z,18.29
2023-05-11T07:20:56.186Z,18.52
2023-05-11T07:23:28.458Z,18.62
2023-05-11T07:26:01.217Z,18.76
2023-05-11T07:28:33.620Z,18.83
2023-05-11T07:31:07.241Z,18.77
2023-05-11T07:33:41.539Z,18.68
2023-05-11T07:36:16.383Z,18.60
2023-05-11T07:38:48.657Z,18.56
2023-05-11T07:41:23.207Z,18.45
2023-05-11T07:43:55.586Z,18.35
2023-05-11T07:46:27.972Z,18.18
2023-05-11T07:49:14.463Z,18.13
2023-05-11T07:51:52.760Z,18.17
2023-05-11T07:54:25.102Z,18.25
2023-05-11T07:56:57.683Z,18.25
2023-05-11T07:59:29.954Z,18.23
2023-05-11T08:02:02.691Z,18.25
2023-05-11T08:04:35.190Z,18.32
2023-05-11T08:07:07.914Z,18.32
2023-05-11T08:09:40.831Z,18.27
2023-05-11T08:12:13.572Z,18.28
2023-05-11T08:14:45.768Z,18.36
2023-05-11T08:17:18.029Z,18.31
2023-05-11T08:19:51.220Z,18.28
2023-05-11T08:22:24.319Z,18.32
2023-05-11T08:24:56.458Z,18.32
2023-05-11T08:27:29.075Z,18.36
2023-05-11T08:30:01.887Z,18.41
2023-05-11T08:32:46.640Z,18.44
2023-05-11T08:35:26.712Z,18.49
2023-05-11T08:37:59.288Z,18.58
2023-05-11T08:40:33.980Z,18.68
2023-05-11T08:43:08.362Z,18.83
2023-05-11T08:45:42.291Z,18.97
2023-05-11T08:48:17.846Z,19.15
2023-05-11T08:50:51.091Z,19.34
2023-05-11T08:53:24.102Z,19.45
2023-05-11T08:55:59.191Z,19.70
2023-05-11T08:58:32.457Z,20.04
2023-05-11T09:01:11.256Z,20.32
2023-05-11T09:03:46.939Z,20.66
2023-05-11T09:06:20.049Z,21.00
2023-05-11T09:08:52.664Z,21.31
2023-05-11T09:11:25.889Z,21.58
2023-05-11T09:13:58.786Z,21.65
2023-05-11T09:16:37.228Z,21.83
2023-05-11T09:19:15.096Z,22.07
2023-05-11T09:21:48.327Z,22.21
2023-05-11T09:24:22.816Z,22.10
2023-05-11T09:27:07.274Z,22.13
2023-05-11T09:29:39.825Z,22.38
2023-05-11T09:32:12.043Z,22.60
2023-05-11T09:34:44.585Z,22.87
2023-05-11T09:37:20.496Z,23.10
2023-05-11T09:42:32.832Z,23.39
2023-05-11T09:45:11.885Z,23.37
2023-05-11T09:47:44.229Z,23.32
2023-05-11T09:50:26.210Z,23.41
2023-05-11T09:52:59.021Z,23.56
2023-05-11T09:55:31.646Z,23.73
2023-05-11T09:58:04.668Z,23.80
2023-05-11T10:00:51.212Z,23.70
2023-05-11T10:03:25.862Z,23.72
2023-05-11T10:06:02.654Z,23.84
2023-05-11T10:08:44.692Z,23.96
2023-05-11T10:11:17.359Z,24.01
2023-05-11T10:13:49.998Z,24.21
2023-05-11T10:16:23.846Z,24.28
2023-05-11T10:18:58.121Z,24.42
2023-05-11T10:21:31.959Z,24.38
2023-05-11T10:24:06.683Z,24.30
2023-05-11T10:26:40.251Z,24.25
2023-05-11T10:29:13.330Z,24.27
2023-05-11T10:31:48.436Z,24.35
2023-05-11T10:34:23.478Z,24.32
2023-05-11T10:36:57.124Z,24.24
2023-05-11T10:39:29.281Z,24.07
2023-05-11T10:42:18.018Z,24.11
2023-05-11T10:45:07.414Z,23.96
2023-05-11T10:48:18.352Z,23.82
2023-05-11T10:51:11.910Z,23.83
2023-05-11T10:54:02.093Z,24.05
2023-05-11T10:56:47.953Z,24.05
2023-05-11T10:59:53.440Z,24.03
2023-05-11T11:02:32.248Z,24.05
2023-05-11T11:05:11.199Z,24.03
2023-05-11T11:08:04.825Z,24.04
2023-05-11T11:10:39.190Z,24.03
2023-05-11T11:13:13.016Z,24.04
2023-05-11T11:16:16.170Z,24.03
2023-05-11T11:18:49.110Z,23.99
2023-05-11T11:21:42.565Z,23.93
2023-05-11T11:24:48.044Z,23.97
2023-05-11T11:27:20.351Z,23.87
2023-05-11T11:30:19.630Z,23.83
2023-05-11T11:32:54.166Z,23.60
2023-05-11T11:35:50.049Z,23.50
2023-05-11T11:38:23.025Z,23.34
2023-05-11T11:40:55.594Z,23.22
2023-05-11T11:43:29.815Z,23.14
2023-05-11T11:46:03.692Z,23.24
2023-05-11T11:48:41.696Z,23.37
2023-05-11T11:51:14.854Z,23.52
2023-05-11T11:54:09.072Z,23.72
2023-05-11T11:56:46.132Z,23.80
2023-05-11T11:59:19.210Z,23.79
2023-05-11T12:01:55.060Z,23.79
2023-05-11T12:04:47.640Z,23.89
2023-05-11T12:07:22.763Z,23.94
2023-05-11T12:09:55.996Z,23.93
2023-05-11T12:12:28.653Z,23.96
2023-05-11T12:15:02.512Z,23.87
2023-05-11T12:17:39.367Z,23.72
2023-05-11T12:20:17.500Z,23.58
2023-05-11T12:22:50.346Z,23.52
2023-05-11T12:25:23.639Z,23.39
2023-05-11T12:27:58.210Z,23.25
2023-05-11T12:30:32.444Z,23.18
2023-05-11T12:33:05.267Z,23.13
2023-05-11T12:35:40.538Z,23.14
2023-05-11T12:38:13.854Z,23.14
2023-05-11T12:40:51.165Z,23.10
2023-05-11T12:43:24.632Z,22.94
2023-05-11T12:45:56.990Z,22.80
2023-05-11T12:48:29.418Z,22.76
2023-05-11T12:51:01.682Z,22.86
2023-05-11T12:53:38.270Z,22.84
2023-05-11T12:56:10.870Z,22.83
2023-05-11T12:58:43.646Z,22.75
2023-05-11T13:01:15.950Z,22.76
2023-05-11T13:03:49.207Z,22.80
2023-05-11T13:06:20.962Z,22.75
2023-05-11T13:08:54.045Z,22.75
2023-05-11T13:11:28.825Z,22.66
2023-05-11T13:14:01.158Z,22.58
2023-05-11T13:16:35.034Z,22.54
2023-05-11T13:19:09.352Z,22.58
2023-05-11T13:21:41.828Z,22.52
2023-05-11T13:24:23.090Z,22.49
2023-05-11T13:26:55.695Z,22.58
2023-05-11T13:29:28.993Z,22.73
2023-05-11T13:32:01.489Z,22.84
2023-05-11T13:34:33.722Z,22.86
2023-05-11T13:37:06.376Z,22.75
2023-05-11T13:39:39.317Z,22.59
2023-05-11T13:42:12.044Z,22.59
2023-05-11T13:44:44.221Z,22.55
2023-05-11T13:47:16.554Z,22.49
2023-05-11T13:49:49.157Z,22.52
2023-05-11T13:52:21.710Z,22.51
2023-05-11T13:54:54.220Z,22.48
2023-05-11T13:57:26.778Z,22.48
2023-05-11T13:59:59.722Z,22.43
2023-05-11T14:02:32.086Z,22.42
2023-05-11T14:05:05.039Z,22.39
2023-05-11T14:07:46.930Z,22.29
2023-05-11T14:10:21.089Z,22.25
2023-05-11T14:12:53.420Z,22.25
2023-05-11T14:15:25.694Z,22.20
2023-05-11T14:17:57.988Z,22.11
2023-05-11T14:20:30.624Z,22.00
2023-05-11T14:23:02.876Z,21.99
2023-05-11T14:25:36.608Z,21.94
2023-05-11T14:28:07.541Z,21.99
2023-05-11T14:30:40.705Z,21.99
2023-05-11T14:33:12.993Z,21.99
2023-05-11T14:35:45.805Z,22.01
2023-05-11T14:38:18.074Z,22.01
2023-05-11T14:40:52.444Z,22.03
2023-05-11T14:43:25.422Z,22.04
2023-05-11T14:45:58.096Z,22.01
2023-05-11T14:48:30.332Z,21.92
2023-05-11T14:51:03.988Z,21.81
2023-05-11T14:53:36.712Z,21.67
2023-05-11T14:56:10.931Z,21.63
2023-05-11T14:58:43.259Z,21.58
2023-05-11T15:01:15.735Z,21.45
2023-05-11T15:03:48.189Z,21.28
2023-05-11T15:06:22.582Z,21.10
2023-05-11T15:08:54.834Z,20.97
2023-05-11T15:11:27.332Z,20.89
2023-05-11T15:13:59.682Z,20.86
2023-05-11T15:16:32.289Z,20.76
2023-05-11T15:19:04.825Z,20.70
2023-05-11T15:21:39.984Z,20.60
2023-05-11T15:24:12.210Z,20.55
2023-05-11T15:26:44.738Z,20.49
2023-05-11T15:29:17.881Z,20.41
2023-05-11T15:31:50.292Z,20.28
2023-05-11T15:34:22.622Z,20.29
2023-05-11T15:36:55.009Z,20.28
2023-05-11T15:39:27.162Z,20.22
2023-05-11T15:41:59.532Z,20.18
2023-05-11T15:44:31.861Z,20.13
2023-05-11T15:47:06.191Z,20.07
2023-05-11T15:49:39.604Z,20.03
2023-05-11T15:52:11.892Z,19.96
2023-05-11T15:54:44.071Z,19.91
2023-05-11T15:57:17.325Z,19.93
2023-05-11T15:59:49.583Z,19.87
2023-05-11T16:02:21.887Z,19.80
2023-05-11T16:04:54.620Z,19.77
2023-05-11T16:07:27.419Z,19.76
2023-05-11T16:09:59.801Z,19.73
2023-05-11T16:12:32.212Z,19.60
2023-05-11T16:15:05.469Z,19.58
2023-05-11T16:17:38.191Z,19.52
2023-05-11T16:20:12.509Z,19.48
2023-05-11T16:22:45.083Z,19.42
2023-05-11T16:25:17.594Z,19.38
2023-05-11T16:27:49.933Z,19.34
2023-05-11T16:30:25.414Z,19.31
2023-05-11T16:32:58.377Z,19.27
2023-05-11T16:35:30.829Z,19.18
2023-05-11T16:38:03.513Z,19.15
2023-05-11T16:40:36.543Z,19.10
2023-05-11T16:43:08.929Z,19.05
2023-05-11T16:45:41.221Z,19.00
2023-05-11T16:48:13.734Z,18.93
2023-05-11T16:50:46.228Z,18.87
2023-05-11T16:53:22.340Z,18.79
2023-05-11T16:55:55.064Z,18.72
2023-05-11T16:58:28.316Z,18.63
2023-05-11T17:01:01.084Z,18.56
2023-05-11T17:03:34.683Z,18.51
2023-05-11T17:06:10.456Z,18.45
2023-05-11T17:08:43.148Z,18.36
2023-05-11T17:11:15.553Z,18.31
2023-05-11T17:13:47.810Z,18.23
2023-05-11T17:16:20.177Z,18.17
2023-05-11T17:18:52.781Z,18.07
2023-05-11T17:21:25.591Z,18.00
2023-05-11T17:23:58.432Z,17.92
2023-05-11T17:26:43.425Z,17.83
2023-05-11T17:29:19.360Z,17.76
2023-05-11T17:31:52.329Z,17.66
2023-05-11T17:34:28.309Z,17.59
2023-05-11T17:37:01.134Z,17.46
2023-05-11T17:39:33.420Z,17.41
2023-05-11T17:42:07.520Z,17.30
2023-05-11T17:44:39.856Z,17.20
2023-05-11T17:47:12.144Z,17.15
2023-05-11T17:49:44.473Z,17.04
2023-05-11T17:52:17.512Z,16.99
2023-05-11T17:54:49.753Z,16.86
2023-05-11T17:57:23.615Z,16.79
2023-05-11T17:59:54.333Z,16.65
2023-05-11T18:02:26.826Z,16.58
2023-05-11T18:04:59.509Z,16.48
2023-05-11T18:07:31.735Z,16.40
2023-05-11T18:10:04.814Z,16.28
2023-05-11T18:12:39.925Z,16.19
2023-05-11T18:15:15.222Z,16.10
2023-05-11T18:17:47.630Z,16.00
2023-05-11T18:20:20.373Z,15.90
2023-05-11T18:22:52.940Z,15.80
2023-05-11T18:25:28.154Z,15.69
2023-05-11T18:28:00.491Z,15.57
2023-05-11T18:30:34.633Z,15.48
2023-05-11T18:33:07.674Z,15.38
2023-05-11T18:35:41.776Z,15.25
2023-05-11T18:38:12.417Z,15.17
2023-05-11T18:40:45.002Z,15.07
2023-05-11T18:43:17.271Z,14.99
2023-05-11T18:45:50.502Z,14.87
2023-05-11T18:48:25.308Z,14.80
2023-05-11T18:50:58.706Z,14.72
2023-05-11T18:53:31.316Z,14.59
2023-05-11T18:56:03.960Z,14.51
2023-05-11T18:58:37.235Z,14.40
2023-05-11T19:01:10.234Z,14.30
2023-05-11T19:03:42.738Z,14.20
2023-05-11T19:06:15.652Z,14.12
2023-05-11T19:08:49.409Z,14.00
2023-05-11T19:11:21.865Z,13.93
2023-05-11T19:13:54.443Z,13.85
2023-05-11T19:16:28.282Z,13.76
2023-05-11T19:19:01.937Z,13.72
2023-05-11T19:21:36.688Z,13.65
2023-05-11T19:24:09.870Z,13.58
2023-05-11T19:26:47.389Z,13.50
2023-05-11T19:29:27.735Z,13.40
2023-05-11T19:32:00.557Z,13.31
2023-05-11T19:34:33.157Z,13.29
2023-05-11T19:37:06.387Z,13.24
2023-05-11T19:39:40.229Z,13.20
2023-05-11T19:42:12.705Z,13.16
2023-05-11T19:44:45.343Z,13.13
2023-05-11T19:47:18.739Z,13.09
2023-05-11T19:49:51.447Z,13.09
2023-05-11T19:52:24.271Z,13.05
2023-05-11T19:54:56.565Z,13.05
2023-05-11T19:57:37.583Z,13.02
2023-05-11T20:00:12.077Z,12.99
2023-05-11T20:02:44.739Z,12.96
2023-05-11T20:05:18.257Z,12.94
2023-05-11T20:07:50.833Z,12.98
2023-05-11T20:10:30.024Z,12.96
2023-05-11T20:13:05.903Z,12.94
2023-05-11T20:15:38.255Z,12.95
2023-05-11T20:18:10.945Z,12.95
2023-05-11T20:20:43.446Z,12.92
2023-05-11T20:23:15.793Z,12.92
2023-05-11T20:25:50.601Z,12.91
2023-05-11T20:28:25.839Z,12.89
2023-05-11T20:31:01.201Z,12.89
2023-05-11T20:36:10.974Z,12.86
2023-05-11T20:38:43.485Z,12.88
2023-05-11T20:41:15.781Z,12.85
2023-05-11T20:43:48.136Z,12.82
2023-05-11T20:46:20.739Z,12.85
2023-05-11T20:48:53.225Z,12.80
2023-05-11T20:51:25.733Z,12.80
2023-05-11T20:53:58.584Z,12.78
2023-05-11T20:56:31.164Z,12.76
2023-05-11T20:59:04.349Z,12.76
2023-05-11T21:01:36.930Z,12.74
2023-05-11T21:04:09.873Z,12.72
2023-05-11T21:06:42.135Z,12.68
2023-05-11T21:09:14.670Z,12.69
2023-05-11T21:11:48.534Z,12.64
2023-05-11T21:14:21.037Z,12.58
2023-05-11T21:16:53.471Z,12.54
2023-05-11T21:19:25.711Z,12.50
2023-05-11T21:21:57.963Z,12.48
2023-05-11T21:24:30.876Z,12.41
2023-05-11T21:27:03.171Z,12.39
2023-05-11T21:29:36.631Z,12.33
2023-05-11T21:32:10.364Z,12.27
2023-05-11T21:34:42.642Z,12.24
2023-05-11T21:37:16.123Z,12.17
2023-05-11T21:39:48.544Z,12.12
2023-05-11T21:42:20.708Z,12.06
2023-05-11T21:44:53.471Z,12.03
2023-05-11T21:47:25.806Z,11.99
2023-05-11T21:49:58.832Z,11.96
2023-05-11T21:52:31.460Z,11.93
2023-05-11T21:55:03.977Z,11.89
2023-05-11T21:57:38.461Z,11.86
2023-05-11T22:00:18.811Z,11.82
2023-05-11T22:02:51.782Z,11.81
2023-05-11T22:05:24.334Z,11.81
2023-05-11T22:08:06.698Z,11.75
2023-05-11T22:10:47.521Z,11.77
2023-05-11T22:13:20.106Z,11.74
2023-05-11T22:15:52.683Z,11.71
2023-05-11T22:18:25.024Z,11.71
2023-05-11T22:20:57.442Z,11.62
2023-05-11T22:23:29.678Z,11.61
2023-05-11T22:26:01.945Z,11.61
2023-05-11T22:28:34.221Z,11.58
2023-05-11T22:31:10.220Z,11.55
2023-05-11T22:33:42.468Z,11.51
2023-05-11T22:36:15.426Z,11.53
2023-05-11T22:38:47.626Z,11.51
2023-05-11T22:41:19.794Z,11.49
2023-05-11T22:43:53.411Z,11.46
2023-05-11T22:46:25.648Z,11.40
2023-05-11T22:48:57.796Z,11.39
2023-05-11T22:51:30.034Z,11.36
2023-05-11T22:54:02.468Z,11.30
2023-05-11T22:56:34.979Z,11.26
2023-05-11T22:59:08.045Z,11.22
2023-05-11T23:01:40.928Z,11.19
2023-05-11T23:04:13.235Z,11.14
2023-05-11T23:06:45.549Z,11.13
2023-05-11T23:09:17.922Z,11.07
2023-05-11T23:11:50.543Z,11.03
2023-05-11T23:14:23.029Z,10.96
2023-05-11T23:16:55.580Z,10.92
2023-05-11T23:19:28.108Z,10.88
2023-05-11T23:22:00.809Z,10.88
2023-05-11T23:24:33.193Z,10.79
2023-05-11T23:27:05.703Z,10.78
2023-05-11T23:29:38.792Z,10.74
2023-05-11T23:32:11.220Z,10.71
2023-05-11T23:34:43.646Z,10.67
2023-05-11T23:37:16.979Z,10.61
2023-05-11T23:39:49.206Z,10.58
2023-05-11T23:42:22.148Z,10.57
2023-05-11T23:44:54.709Z,10.52
2023-05-11T23:47:27.318Z,10.50
2023-05-11T23:49:59.917Z,10.48
2023-05-11T23:52:32.754Z,10.47
2023-05-11T23:55:06.461Z,10.41
2023-05-11T23:57:41.337Z,10.40
